Time;durP1;ratioP1;P1;durP2;ratioP2;P2;SDS_P1;SDS_P2;PMS_P1;PMS_P2;Temp;Humidity;BMP_temperature;BMP_pressure;BME280_temperature;BME280_humidity;BME280_pressure;Samples;Min_cycle;Max_cycle;Signal;HPM_P1;HPM_P2
2022/03/29 00:01:57;;;;;;;14.67;11.93;;;;;;;;;;5013700;28;20269;-84
2022/03/29 00:04:24;;;;;;;14.17;12.73;;;;;;;;;;5012671;28;20199;-84
2022/03/29 00:06:52;;;;;;;13.80;11.53;;;;;;;;;;5011381;28;20293;-84
2022/03/29 00:09:20;;;;;;;14.07;11.00;;;;;;;;;;5012306;28;20576;-84
2022/03/29 00:11:48;;;;;;;14.30;11.37;;;;;;;;;;5012723;28;20195;-85
2022/03/29 00:14:16;;;;;;;17.80;10.40;;;;;;;;;;5012598;28;20279;-84
2022/03/29 00:20:06;;;;;;;13.60;10.73;;;;;;;;;;5012694;28;20273;-83
2022/03/29 00:22:33;;;;;;;16.13;11.13;;;;;;;;;;5012833;28;20286;-84
2022/03/29 00:25:02;;;;;;;17.40;11.70;;;;;;;;;;5013051;28;20206;-84
2022/03/29 00:27:29;;;;;;;13.47;10.33;;;;;;;;;;5012624;28;20585;-84
2022/03/29 00:29:56;;;;;;;17.23;10.80;;;;;;;;;;5012235;28;20226;-84
2022/03/29 00:32:23;;;;;;;17.97;12.63;;;;;;;;;;5012759;28;20199;-84
2022/03/29 00:34:50;;;;;;;22.00;11.40;;;;;;;;;;5012090;28;20241;-84
2022/03/29 00:37:18;;;;;;;14.43;11.03;;;;;;;;;;5012382;28;20676;-83
2022/03/29 00:39:45;;;;;;;13.57;10.57;;;;;;;;;;5011974;28;20318;-84
2022/03/29 00:42:13;;;;;;;13.17;10.23;;;;;;;;;;5012613;28;20237;-85
2022/03/29 00:44:41;;;;;;;18.27;15.03;;;;;;;;;;5012798;28;20293;-85
2022/03/29 00:47:08;;;;;;;17.23;15.23;;;;;;;;;;5012115;28;20657;-85
2022/03/29 00:49:36;;;;;;;17.33;13.23;;;;;;;;;;5012888;28;20589;-84
2022/03/29 00:52:05;;;;;;;15.03;13.17;;;;;;;;;;5012303;28;20245;-84
2022/03/29 00:54:35;;;;;;;18.73;13.50;;;;;;;;;;5011991;28;20290;-84
2022/03/29 00:57:04;;;;;;;15.13;13.00;;;;;;;;;;5012135;28;20207;-83
2022/03/29 00:59:33;;;;;;;17.73;13.60;;;;;;;;;;5014717;28;20737;-84
2022/03/29 01:02:00;;;;;;;16.67;12.83;;;;;;;;;;5012635;28;20291;-84
2022/03/29 01:04:28;;;;;;;17.90;11.43;;;;;;;;;;5012277;28;20199;-84
2022/03/29 01:06:58;;;;;;;18.77;14.30;;;;;;;;;;5012756;28;20286;-84
2022/03/29 01:09:26;;;;;;;19.00;14.23;;;;;;;;;;5012045;28;20227;-84
2022/03/29 01:11:53;;;;;;;21.57;16.43;;;;;;;;;;5012116;28;20199;-84
2022/03/29 01:14:21;;;;;;;24.90;17.40;;;;;;;;;;5012375;28;20294;-84
2022/03/29 01:19:35;;;;;;;16.90;13.03;;;;;;;;;;5011887;28;20206;-84
2022/03/29 01:22:05;;;;;;;16.53;12.27;;;;;;;;;;5012927;28;20207;-84
2022/03/29 01:24:33;;;;;;;17.13;13.53;;;;;;;;;;5011987;28;20187;-84
2022/03/29 01:27:02;;;;;;;17.77;13.67;;;;;;;;;;5012523;28;20253;-84
2022/03/29 01:29:30;;;;;;;20.03;13.93;;;;;;;;;;5011783;28;20286;-84
2022/03/29 01:31:58;;;;;;;18.27;13.87;;;;;;;;;;5012029;28;20198;-84
2022/03/29 01:34:25;;;;;;;34.97;27.20;;;;;;;;;;5012044;28;20255;-84
2022/03/29 01:36:54;;;;;;;28.30;21.87;;;;;;;;;;5012461;28;20195;-84
2022/03/29 01:39:23;;;;;;;19.90;15.30;;;;;;;;;;5011958;28;20225;-84
2022/03/29 01:41:51;;;;;;;21.33;13.97;;;;;;;;;;5012130;28;20192;-84
2022/03/29 01:44:18;;;;;;;13.97;12.47;;;;;;;;;;5013651;28;20586;-84
2022/03/29 01:46:45;;;;;;;24.13;11.97;;;;;;;;;;5015996;28;20198;-85
2022/03/29 01:49:12;;;;;;;17.10;12.63;;;;;;;;;;5015157;28;20196;-84
2022/03/29 01:51:39;;;;;;;15.93;12.07;;;;;;;;;;5015249;28;20203;-84
2022/03/29 01:54:07;;;;;;;18.73;14.27;;;;;;;;;;5015000;28;20239;-84
2022/03/29 01:56:36;;;;;;;23.93;17.23;;;;;;;;;;5015811;28;20672;-84
2022/03/29 01:59:06;;;;;;;23.73;15.97;;;;;;;;;;5014874;28;20295;-84
2022/03/29 02:01:40;;;;;;;18.30;15.60;;;;;;;;;;5015040;28;20200;-84
2022/03/29 02:04:07;;;;;;;20.13;15.17;;;;;;;;;;5015267;28;20188;-84
2022/03/29 02:06:34;;;;;;;18.50;13.60;;;;;;;;;;5015434;28;20730;-84
2022/03/29 02:09:02;;;;;;;15.00;13.40;;;;;;;;;;5014868;28;20653;-84
2022/03/29 02:11:29;;;;;;;21.80;13.77;;;;;;;;;;5015023;28;20290;-84
2022/03/29 02:13:58;;;;;;;16.23;13.30;;;;;;;;;;5014963;28;20196;-84
2022/03/29 02:16:25;;;;;;;17.13;14.33;;;;;;;;;;5014834;28;20201;-85
2022/03/29 02:18:52;;;;;;;20.83;14.87;;;;;;;;;;5015045;28;20291;-84
2022/03/29 02:21:19;;;;;;;21.93;15.70;;;;;;;;;;5014590;28;20200;-84
2022/03/29 02:23:47;;;;;;;19.87;15.63;;;;;;;;;;5014666;28;20199;-84
2022/03/29 02:26:14;;;;;;;23.00;16.10;;;;;;;;;;5014541;28;20203;-84
2022/03/29 02:28:41;;;;;;;17.03;14.37;;;;;;;;;;5014965;28;20287;-84
2022/03/29 02:31:10;;;;;;;28.20;13.17;;;;;;;;;;5014786;28;20291;-84
2022/03/29 02:33:37;;;;;;;22.77;14.73;;;;;;;;;;5014312;28;20199;-84
2022/03/29 02:36:05;;;;;;;25.43;17.73;;;;;;;;;;5015029;28;20685;-84
2022/03/29 02:38:32;;;;;;;25.27;18.13;;;;;;;;;;5014506;28;20282;-84
2022/03/29 02:41:00;;;;;;;21.23;16.53;;;;;;;;;;5014706;28;20227;-83
2022/03/29 02:43:27;;;;;;;20.13;14.37;;;;;;;;;;5014325;28;20195;-84
2022/03/29 02:45:55;;;;;;;17.17;15.27;;;;;;;;;;5013994;28;20202;-84
2022/03/29 02:48:23;;;;;;;18.17;13.60;;;;;;;;;;5014254;28;20208;-84
2022/03/29 02:50:51;;;;;;;17.17;13.43;;;;;;;;;;5013962;28;20196;-85
2022/03/29 02:53:19;;;;;;;19.50;13.93;;;;;;;;;;5014084;28;20235;-85
2022/03/29 02:55:46;;;;;;;14.63;13.13;;;;;;;;;;5014267;28;20279;-85
2022/03/29 02:58:13;;;;;;;16.67;13.10;;;;;;;;;;5014822;28;20254;-84
2022/03/29 03:00:41;;;;;;;14.63;13.23;;;;;;;;;;5013909;28;20285;-85
2022/03/29 03:03:08;;;;;;;15.53;13.27;;;;;;;;;;5014451;28;20203;-85
2022/03/29 03:05:36;;;;;;;16.03;13.60;;;;;;;;;;5014331;28;20199;-84
2022/03/29 03:08:04;;;;;;;18.63;13.63;;;;;;;;;;5013902;28;20286;-84
2022/03/29 03:10:31;;;;;;;23.83;13.57;;;;;;;;;;5014208;28;20563;-84
2022/03/29 03:12:59;;;;;;;19.10;13.27;;;;;;;;;;5013915;28;20231;-87
2022/03/29 03:15:26;;;;;;;21.97;15.67;;;;;;;;;;5014022;28;20275;-84
2022/03/29 03:17:54;;;;;;;20.20;14.67;;;;;;;;;;5013761;28;20714;-84
2022/03/29 03:20:22;;;;;;;17.37;14.40;;;;;;;;;;5013747;28;20227;-85
2022/03/29 03:22:51;;;;;;;22.47;13.47;;;;;;;;;;5013701;28;20200;-84
2022/03/29 03:25:18;;;;;;;16.33;13.20;;;;;;;;;;5013359;28;20199;-84
2022/03/29 03:27:46;;;;;;;25.10;15.13;;;;;;;;;;5013679;28;20205;-84
2022/03/29 03:30:14;;;;;;;17.13;13.90;;;;;;;;;;5012527;28;20196;-84
2022/03/29 03:32:41;;;;;;;17.67;13.87;;;;;;;;;;5012849;28;20199;-84
2022/03/29 03:35:09;;;;;;;17.37;13.00;;;;;;;;;;5012065;28;20238;-84
2022/03/29 03:37:37;;;;;;;17.70;13.20;;;;;;;;;;5012556;28;20262;-84
2022/03/29 03:40:07;;;;;;;17.90;13.90;;;;;;;;;;5012104;28;20597;-84
2022/03/29 03:42:35;;;;;;;16.37;13.10;;;;;;;;;;5013068;28;20191;-83
2022/03/29 03:45:03;;;;;;;20.87;14.20;;;;;;;;;;5012869;28;20302;-84
2022/03/29 03:47:31;;;;;;;25.13;13.63;;;;;;;;;;5012466;28;20273;-84
2022/03/29 03:49:58;;;;;;;17.40;13.50;;;;;;;;;;5011899;28;20235;-84
2022/03/29 03:52:25;;;;;;;17.50;12.00;;;;;;;;;;5012115;28;20196;-84
2022/03/29 03:54:54;;;;;;;15.83;12.10;;;;;;;;;;5012314;28;20592;-84
2022/03/29 03:57:23;;;;;;;20.07;12.63;;;;;;;;;;5011878;28;20200;-84
2022/03/29 03:59:55;;;;;;;16.10;11.40;;;;;;;;;;5012090;28;20227;-85
2022/03/29 04:02:22;;;;;;;17.03;12.30;;;;;;;;;;5012236;28;20194;-85
2022/03/29 04:04:49;;;;;;;21.27;13.07;;;;;;;;;;5013032;28;20218;-85
2022/03/29 04:07:16;;;;;;;15.33;12.17;;;;;;;;;;5012574;28;20312;-85
2022/03/29 04:09:44;;;;;;;15.73;11.87;;;;;;;;;;5027312;28;20257;-86
2022/03/29 04:12:12;;;;;;;14.10;12.60;;;;;;;;;;5032565;28;20195;-85
2022/03/29 04:14:40;;;;;;;16.07;12.13;;;;;;;;;;5031997;28;20213;-85
2022/03/29 04:17:10;;;;;;;13.03;11.67;;;;;;;;;;5040598;28;20602;-84
2022/03/29 04:19:37;;;;;;;14.90;13.23;;;;;;;;;;5034336;28;20202;-85
2022/03/29 04:22:05;;;;;;;19.23;14.17;;;;;;;;;;5033175;28;20195;-86
2022/03/29 04:24:32;;;;;;;15.83;12.57;;;;;;;;;;5032570;28;20237;-85
2022/03/29 04:26:59;;;;;;;21.13;13.73;;;;;;;;;;5032325;28;20237;-85
2022/03/29 04:29:27;;;;;;;15.50;13.87;;;;;;;;;;5032342;28;20293;-85
2022/03/29 04:31:55;;;;;;;19.13;12.97;;;;;;;;;;5032806;28;20221;-86
2022/03/29 04:34:22;;;;;;;14.63;12.47;;;;;;;;;;5032090;28;20241;-86
2022/03/29 04:36:50;;;;;;;18.70;13.97;;;;;;;;;;5032751;28;20201;-85
2022/03/29 04:39:17;;;;;;;23.70;16.83;;;;;;;;;;5032129;28;20229;-85
2022/03/29 04:41:45;;;;;;;23.23;17.87;;;;;;;;;;5032901;28;20218;-86
2022/03/29 04:44:12;;;;;;;26.67;19.27;;;;;;;;;;5031854;28;20190;-86
2022/03/29 04:46:39;;;;;;;28.00;20.83;;;;;;;;;;5032390;28;20198;-85
2022/03/29 04:49:07;;;;;;;26.67;20.47;;;;;;;;;;5031550;28;20202;-85
2022/03/29 04:51:35;;;;;;;25.63;17.57;;;;;;;;;;5032052;28;20194;-86
2022/03/29 04:54:02;;;;;;;21.73;16.97;;;;;;;;;;5031969;28;20209;-85
2022/03/29 04:56:30;;;;;;;29.10;17.53;;;;;;;;;;5032937;28;20202;-85
2022/03/29 04:58:57;;;;;;;22.87;18.37;;;;;;;;;;5032769;28;20225;-85
2022/03/29 05:01:24;;;;;;;25.20;17.77;;;;;;;;;;5032145;28;20222;-86
2022/03/29 05:03:51;;;;;;;23.07;17.33;;;;;;;;;;5032178;28;20194;-86
2022/03/29 05:06:20;;;;;;;40.30;17.17;;;;;;;;;;5032445;28;20233;-86
2022/03/29 05:08:47;;;;;;;23.70;16.47;;;;;;;;;;5033040;28;20203;-85
2022/03/29 05:11:15;;;;;;;30.67;22.23;;;;;;;;;;5032192;28;20194;-86
2022/03/29 05:13:42;;;;;;;22.80;18.23;;;;;;;;;;5032077;28;20199;-85
2022/03/29 05:16:09;;;;;;;17.40;14.20;;;;;;;;;;5031654;28;20202;-86
2022/03/29 05:18:36;;;;;;;15.93;14.17;;;;;;;;;;5032966;28;20199;-86
2022/03/29 05:21:03;;;;;;;21.80;16.43;;;;;;;;;;5009134;28;20223;-86
2022/03/29 05:23:32;;;;;;;23.60;16.03;;;;;;;;;;5001447;28;20212;-86
2022/03/29 05:25:59;;;;;;;20.17;15.13;;;;;;;;;;4996428;28;20554;-86
2022/03/29 05:28:26;;;;;;;26.30;16.23;;;;;;;;;;4996315;28;20669;-85
2022/03/29 05:30:53;;;;;;;20.17;15.27;;;;;;;;;;4997245;28;20192;-86
2022/03/29 05:33:20;;;;;;;18.67;14.47;;;;;;;;;;4996608;28;20200;-86
2022/03/29 05:35:48;;;;;;;15.43;12.50;;;;;;;;;;4995535;28;20232;-86
2022/03/29 05:38:15;;;;;;;15.67;13.40;;;;;;;;;;4996340;28;20576;-86
2022/03/29 05:40:43;;;;;;;20.60;14.90;;;;;;;;;;4996300;28;20243;-87
2022/03/29 05:43:11;;;;;;;19.50;15.20;;;;;;;;;;4995592;28;20205;-87
2022/03/29 05:45:39;;;;;;;21.47;14.73;;;;;;;;;;4995935;28;20619;-86
2022/03/29 05:50:53;;;;;;;14.97;13.40;;;;;;;;;;4995523;28;20235;-86
2022/03/29 05:53:21;;;;;;;22.53;15.60;;;;;;;;;;4995445;28;20205;-86
2022/03/29 05:55:49;;;;;;;18.20;14.43;;;;;;;;;;4995726;28;20254;-86
2022/03/29 05:58:17;;;;;;;22.23;14.90;;;;;;;;;;4995414;28;20693;-86
2022/03/29 06:00:44;;;;;;;21.40;16.10;;;;;;;;;;4995196;28;20275;-86
2022/03/29 06:03:12;;;;;;;22.67;16.83;;;;;;;;;;4995331;28;20192;-86
2022/03/29 06:05:46;;;;;;;21.60;17.33;;;;;;;;;;4995399;28;20209;-86
2022/03/29 06:08:13;;;;;;;32.53;18.07;;;;;;;;;;4998885;28;20192;-86
2022/03/29 06:10:41;;;;;;;25.20;17.03;;;;;;;;;;4993947;28;20576;-86
2022/03/29 06:13:11;;;;;;;26.00;16.27;;;;;;;;;;4995057;28;20201;-86
2022/03/29 06:15:38;;;;;;;22.87;15.43;;;;;;;;;;4995423;28;20193;-86
2022/03/29 06:18:06;;;;;;;33.40;17.30;;;;;;;;;;4995451;28;20204;-86
2022/03/29 06:20:34;;;;;;;32.33;18.37;;;;;;;;;;4994843;28;20228;-86
2022/03/29 06:23:01;;;;;;;32.13;19.70;;;;;;;;;;4995338;28;20313;-86
2022/03/29 06:25:32;;;;;;;40.57;22.83;;;;;;;;;;4995260;28;20200;-86
2022/03/29 06:27:59;;;;;;;31.57;17.30;;;;;;;;;;4995683;28;20194;-86
2022/03/29 06:30:28;;;;;;;27.67;16.13;;;;;;;;;;4994296;28;20200;-86
2022/03/29 06:32:55;;;;;;;18.73;12.30;;;;;;;;;;5003626;28;20207;-86
2022/03/29 06:35:23;;;;;;;20.33;12.20;;;;;;;;;;4997209;28;20248;-86
2022/03/29 06:37:51;;;;;;;20.33;13.93;;;;;;;;;;4997147;28;20204;-86
2022/03/29 06:40:18;;;;;;;23.03;15.33;;;;;;;;;;4994586;28;20234;-86
2022/03/29 06:42:45;;;;;;;21.17;15.30;;;;;;;;;;4994917;28;20205;-86
2022/03/29 06:45:12;;;;;;;19.17;11.53;;;;;;;;;;4994864;28;20208;-86
2022/03/29 06:47:41;;;;;;;15.53;11.20;;;;;;;;;;5004259;28;20226;-86
2022/03/29 06:50:10;;;;;;;17.37;11.23;;;;;;;;;;5015229;28;20250;-86
2022/03/29 06:52:37;;;;;;;16.70;11.13;;;;;;;;;;5014353;28;20578;-87
2022/03/29 06:55:06;;;;;;;17.73;10.83;;;;;;;;;;5014703;28;20203;-86
2022/03/29 06:57:33;;;;;;;18.03;11.23;;;;;;;;;;5015355;28;20206;-86
2022/03/29 07:00:01;;;;;;;17.47;11.23;;;;;;;;;;5014300;28;20200;-86
2022/03/29 07:02:29;;;;;;;15.77;10.37;;;;;;;;;;5014302;28;20227;-86
2022/03/29 07:04:57;;;;;;;17.37;11.57;;;;;;;;;;5014419;28;20200;-87
2022/03/29 07:07:24;;;;;;;17.20;11.73;;;;;;;;;;5014179;28;20202;-86
2022/03/29 07:12:47;;;;;;;14.63;12.37;;;;;;;;;;5013706;28;20241;-87
2022/03/29 07:15:14;;;;;;;13.93;10.83;;;;;;;;;;5013953;28;20189;-87
2022/03/29 07:17:42;;;;;;;17.33;11.80;;;;;;;;;;5014078;28;20573;-86
2022/03/29 07:20:11;;;;;;;20.27;14.53;;;;;;;;;;5013807;28;20199;-87
2022/03/29 07:22:38;;;;;;;24.13;16.23;;;;;;;;;;5013609;28;20219;-86
2022/03/29 07:25:06;;;;;;;26.27;17.43;;;;;;;;;;5013783;28;20206;-87
2022/03/29 07:27:33;;;;;;;44.70;24.87;;;;;;;;;;5014045;28;20727;-87
2022/03/29 07:30:03;;;;;;;53.43;35.53;;;;;;;;;;5013444;28;20199;-87
2022/03/29 07:32:30;;;;;;;25.50;18.93;;;;;;;;;;5014099;28;20199;-87
2022/03/29 07:34:57;;;;;;;38.27;23.97;;;;;;;;;;5013366;28;20617;-86
2022/03/29 07:37:26;;;;;;;39.60;26.43;;;;;;;;;;5013438;28;20285;-87
2022/03/29 07:39:54;;;;;;;19.60;16.17;;;;;;;;;;5014308;28;20207;-87
2022/03/29 07:42:22;;;;;;;21.50;16.30;;;;;;;;;;5013697;28;20278;-87
2022/03/29 07:44:50;;;;;;;38.30;23.77;;;;;;;;;;5013840;28;20282;-86
2022/03/29 07:47:19;;;;;;;19.13;14.60;;;;;;;;;;5013402;28;20555;-87
2022/03/29 07:49:46;;;;;;;21.27;15.37;;;;;;;;;;5013129;28;20194;-86
2022/03/29 07:52:14;;;;;;;17.13;13.07;;;;;;;;;;5013119;28;20195;-87
2022/03/29 07:54:43;;;;;;;17.57;13.07;;;;;;;;;;5012945;28;20211;-87
2022/03/29 07:57:10;;;;;;;21.80;13.17;;;;;;;;;;5013348;28;20199;-86
2022/03/29 07:59:38;;;;;;;19.90;13.07;;;;;;;;;;5012971;28;20258;-87
2022/03/29 08:02:06;;;;;;;23.00;14.87;;;;;;;;;;5013188;28;20723;-87
2022/03/29 08:04:33;;;;;;;19.30;13.53;;;;;;;;;;5012535;28;20203;-86
2022/03/29 08:07:01;;;;;;;15.00;13.33;;;;;;;;;;5013311;28;20601;-86
2022/03/29 08:09:29;;;;;;;16.07;12.10;;;;;;;;;;5013424;28;20204;-86
2022/03/29 08:11:57;;;;;;;18.60;12.33;;;;;;;;;;5012984;28;20659;-86
2022/03/29 08:14:25;;;;;;;27.00;20.40;;;;;;;;;;5012891;28;20203;-87
2022/03/29 08:16:53;;;;;;;28.37;13.23;;;;;;;;;;5012688;28;20200;-87
2022/03/29 08:19:20;;;;;;;24.07;16.60;;;;;;;;;;5013066;28;20604;-87
2022/03/29 08:21:50;;;;;;;27.70;15.53;;;;;;;;;;5012577;28;20232;-84
2022/03/29 08:24:18;;;;;;;24.77;17.13;;;;;;;;;;5013265;28;20632;-86
2022/03/29 08:26:46;;;;;;;14.63;13.07;;;;;;;;;;5012963;28;20216;-86
2022/03/29 08:29:16;;;;;;;17.20;13.27;;;;;;;;;;5012817;28;20201;-87
2022/03/29 08:31:43;;;;;;;25.00;20.00;;;;;;;;;;5012588;28;20244;-86
2022/03/29 08:34:11;;;;;;;37.97;25.93;;;;;;;;;;5012390;28;20346;-87
2022/03/29 08:36:38;;;;;;;34.17;25.73;;;;;;;;;;5012950;28;20270;-87
2022/03/29 08:39:07;;;;;;;18.60;14.50;;;;;;;;;;5012673;28;20207;-86
2022/03/29 08:41:38;;;;;;;25.73;21.60;;;;;;;;;;5012576;28;20620;-87
2022/03/29 08:44:06;;;;;;;34.60;19.53;;;;;;;;;;5012454;28;20192;-87
2022/03/29 08:46:38;;;;;;;25.23;18.70;;;;;;;;;;5012457;28;20212;-87
2022/03/29 08:49:05;;;;;;;22.60;14.53;;;;;;;;;;5012396;28;20188;-86
2022/03/29 08:51:33;;;;;;;15.93;14.30;;;;;;;;;;5012272;28;20236;-87
2022/03/29 08:54:00;;;;;;;21.83;15.97;;;;;;;;;;5015648;28;20208;-87
2022/03/29 08:56:27;;;;;;;19.23;13.80;;;;;;;;;;5016826;28;20202;-87
2022/03/29 08:58:55;;;;;;;15.63;14.00;;;;;;;;;;5016266;28;20227;-86
2022/03/29 09:01:23;;;;;;;24.53;15.13;;;;;;;;;;5016339;28;20232;-87
2022/03/29 09:04:10;;;;;;;27.80;20.20;;;;;;;;;;5016251;28;20695;-87
2022/03/29 09:06:57;;;;;;;19.93;13.53;;;;;;;;;;5016340;28;20187;-87
2022/03/29 09:09:25;;;;;;;10.83;9.83;;;;;;;;;;5017109;28;20202;-87
2022/03/29 09:11:53;;;;;;;14.23;9.80;;;;;;;;;;5017285;28;20202;-87
2022/03/29 09:14:21;;;;;;;13.20;9.57;;;;;;;;;;5016962;28;20210;-87
2022/03/29 09:16:51;;;;;;;11.37;9.90;;;;;;;;;;5016627;28;20205;-87
2022/03/29 09:19:23;;;;;;;21.23;13.33;;;;;;;;;;5016405;28;20194;-87
2022/03/29 09:21:51;;;;;;;11.83;9.50;;;;;;;;;;5016936;28;20210;-87
2022/03/29 09:24:20;;;;;;;10.30;9.20;;;;;;;;;;5016887;28;20190;-86
2022/03/29 09:26:49;;;;;;;11.57;8.90;;;;;;;;;;5017197;28;20198;-86
2022/03/29 09:29:18;;;;;;;17.80;9.43;;;;;;;;;;5015849;28;20195;-87
2022/03/29 09:31:45;;;;;;;12.63;9.97;;;;;;;;;;5015829;28;20698;-87
2022/03/29 09:34:17;;;;;;;13.90;8.60;;;;;;;;;;5015907;28;20700;-87
2022/03/29 09:36:49;;;;;;;13.57;10.53;;;;;;;;;;5016162;28;20188;-87
2022/03/29 09:39:39;;;;;;;10.47;9.37;;;;;;;;;;5015481;28;20195;-87
2022/03/29 09:42:09;;;;;;;11.50;7.93;;;;;;;;;;5016007;28;20684;-87
2022/03/29 09:44:41;;;;;;;13.93;7.03;;;;;;;;;;5015878;28;20184;-87
2022/03/29 09:47:09;;;;;;;8.70;6.73;;;;;;;;;;5018038;28;20187;-85
2022/03/29 09:49:55;;;;;;;21.40;11.20;;;;;;;;;;5029680;28;20275;-87
2022/03/29 09:52:25;;;;;;;12.23;10.87;;;;;;;;;;5015604;28;20195;-87
2022/03/29 09:55:14;;;;;;;8.23;5.87;;;;;;;;;;5015486;28;20206;-88
2022/03/29 09:57:44;;;;;;;8.80;5.60;;;;;;;;;;5015485;28;20254;-87
2022/03/29 10:00:14;;;;;;;9.53;5.53;;;;;;;;;;5015220;28;20196;-88
2022/03/29 10:02:44;;;;;;;9.97;5.53;;;;;;;;;;5015131;28;20318;-87
2022/03/29 10:05:12;;;;;;;35.77;24.40;;;;;;;;;;5014529;28;20275;-87
2022/03/29 10:07:51;;;;;;;5.70;4.43;;;;;;;;;;5015430;28;20196;-86
2022/03/29 10:10:18;;;;;;;15.10;5.13;;;;;;;;;;5015474;28;20577;-87
2022/03/29 10:12:45;;;;;;;5.80;5.00;;;;;;;;;;5014915;28;20621;-87
2022/03/29 10:15:13;;;;;;;5.90;5.27;;;;;;;;;;5015234;28;20199;-87
2022/03/29 10:17:42;;;;;;;6.37;4.80;;;;;;;;;;5015343;28;20668;-88
2022/03/29 10:20:10;;;;;;;7.57;5.07;;;;;;;;;;5014933;28;20199;-88
2022/03/29 10:22:40;;;;;;;6.00;5.40;;;;;;;;;;5014900;28;20223;-88
2022/03/29 10:25:09;;;;;;;9.37;5.80;;;;;;;;;;5015770;28;20562;-88
2022/03/29 10:27:37;;;;;;;7.90;6.27;;;;;;;;;;5015318;28;20226;-87
2022/03/29 10:30:05;;;;;;;7.33;6.63;;;;;;;;;;5014621;28;20203;-87
2022/03/29 10:32:33;;;;;;;11.43;7.10;;;;;;;;;;5015037;28;20664;-86
2022/03/29 10:35:07;;;;;;;12.03;8.43;;;;;;;;;;5014534;28;20235;-86
2022/03/29 10:37:53;;;;;;;10.60;6.73;;;;;;;;;;5014998;28;20225;-88
2022/03/29 10:40:39;;;;;;;11.53;7.30;;;;;;;;;;5015280;28;20257;-87
2022/03/29 10:43:29;;;;;;;11.57;7.33;;;;;;;;;;5015131;28;20216;-87
2022/03/29 10:45:56;;;;;;;7.63;6.73;;;;;;;;;;5015043;28;20200;-87
2022/03/29 10:48:23;;;;;;;8.13;6.43;;;;;;;;;;5014965;28;20691;-87
2022/03/29 10:50:59;;;;;;;10.13;6.23;;;;;;;;;;5014413;28;20199;-87
2022/03/29 10:53:32;;;;;;;7.40;5.20;;;;;;;;;;5014161;28;20210;-87
2022/03/29 10:56:22;;;;;;;8.13;5.60;;;;;;;;;;5014783;28;20615;-87
2022/03/29 10:59:10;;;;;;;7.93;5.13;;;;;;;;;;5014502;28;20270;-87
2022/03/29 11:01:39;;;;;;;10.60;6.33;;;;;;;;;;5010815;28;20199;-87
2022/03/29 11:04:08;;;;;;;7.47;5.80;;;;;;;;;;5014315;28;20261;-87
2022/03/29 11:06:36;;;;;;;9.57;5.37;;;;;;;;;;5014179;28;20188;-87
2022/03/29 11:09:05;;;;;;;6.50;5.33;;;;;;;;;;5014244;28;20199;-87
2022/03/29 11:11:43;;;;;;;9.13;5.00;;;;;;;;;;5013987;28;20207;-87
2022/03/29 11:14:39;;;;;;;12.53;5.97;;;;;;;;;;5013789;28;20241;-87
2022/03/29 11:17:40;;;;;;;11.60;5.40;;;;;;;;;;5013223;28;20648;-87
2022/03/29 11:20:32;;;;;;;6.53;5.60;;;;;;;;;;5013960;28;20226;-88
2022/03/29 11:23:04;;;;;;;6.93;5.30;;;;;;;;;;5008100;28;20258;-86
2022/03/29 11:25:33;;;;;;;9.63;5.40;;;;;;;;;;5013623;28;20203;-87
2022/03/29 11:28:09;;;;;;;12.30;5.20;;;;;;;;;;5014103;28;20207;-87
2022/03/29 11:30:36;;;;;;;6.30;5.13;;;;;;;;;;5014096;28;20218;-87
2022/03/29 11:33:04;;;;;;;9.50;5.83;;;;;;;;;;5014067;28;20195;-87
2022/03/29 11:35:32;;;;;;;9.47;5.63;;;;;;;;;;5013556;28;20270;-87
2022/03/29 11:38:10;;;;;;;12.63;6.23;;;;;;;;;;5013726;28;20204;-87
2022/03/29 11:40:38;;;;;;;7.63;5.77;;;;;;;;;;5013866;28;20199;-87
2022/03/29 11:43:10;;;;;;;6.93;5.53;;;;;;;;;;5013182;28;20231;-87
2022/03/29 11:45:41;;;;;;;8.30;5.47;;;;;;;;;;5013570;28;20192;-88
2022/03/29 11:48:12;;;;;;;14.87;4.93;;;;;;;;;;5013619;28;20187;-87
2022/03/29 11:50:42;;;;;;;13.50;4.63;;;;;;;;;;5013398;28;20195;-88
2022/03/29 11:53:20;;;;;;;12.40;6.40;;;;;;;;;;5013301;28;20668;-87
2022/03/29 11:55:55;;;;;;;12.70;4.80;;;;;;;;;;5013025;28;20199;-87
2022/03/29 11:58:24;;;;;;;10.50;5.47;;;;;;;;;;5013042;28;20571;-87
2022/03/29 12:00:51;;;;;;;14.30;5.33;;;;;;;;;;5013625;28;20581;-87
2022/03/29 12:03:29;;;;;;;12.13;5.40;;;;;;;;;;5013585;28;20234;-87
2022/03/29 12:06:07;;;;;;;16.53;4.47;;;;;;;;;;5013220;28;20281;-87
2022/03/29 12:08:59;;;;;;;14.93;6.87;;;;;;;;;;5012847;28;20210;-87
2022/03/29 12:11:27;;;;;;;8.67;4.70;;;;;;;;;;5007791;28;20210;-87
2022/03/29 12:14:08;;;;;;;11.80;4.93;;;;;;;;;;5012757;28;20214;-88
2022/03/29 12:16:37;;;;;;;13.27;4.80;;;;;;;;;;5013582;28;20556;-88
2022/03/29 12:19:08;;;;;;;11.13;5.03;;;;;;;;;;5013132;28;20739;-87
2022/03/29 12:21:35;;;;;;;16.03;6.37;;;;;;;;;;5013413;28;20296;-86
2022/03/29 12:24:06;;;;;;;12.43;4.97;;;;;;;;;;5012883;28;20281;-87
2022/03/29 12:26:34;;;;;;;10.43;4.67;;;;;;;;;;5012932;28;20191;-87
2022/03/29 12:29:02;;;;;;;16.73;6.23;;;;;;;;;;5012292;28;20210;-87
2022/03/29 12:31:30;;;;;;;10.90;5.20;;;;;;;;;;5012584;28;20199;-87
2022/03/29 12:33:58;;;;;;;10.80;4.93;;;;;;;;;;5012253;28;20205;-87
2022/03/29 12:36:26;;;;;;;12.37;5.57;;;;;;;;;;5012364;28;20234;-87
2022/03/29 12:38:55;;;;;;;10.53;5.03;;;;;;;;;;5012590;28;20226;-87
2022/03/29 12:41:34;;;;;;;10.13;4.30;;;;;;;;;;5012755;28;20579;-87
2022/03/29 12:44:01;;;;;;;9.10;4.70;;;;;;;;;;5012252;28;20310;-87
2022/03/29 12:46:31;;;;;;;11.70;6.33;;;;;;;;;;5012580;28;20204;-87
2022/03/29 12:48:59;;;;;;;13.50;4.90;;;;;;;;;;5012668;28;20200;-87
2022/03/29 12:51:28;;;;;;;10.90;5.00;;;;;;;;;;5012677;28;20571;-87
2022/03/29 12:53:59;;;;;;;12.07;4.77;;;;;;;;;;5012700;28;20191;-87
2022/03/29 12:56:30;;;;;;;12.50;5.23;;;;;;;;;;5012582;28;20603;-87
2022/03/29 12:58:58;;;;;;;5.97;4.73;;;;;;;;;;5012731;28;20587;-87
2022/03/29 13:01:27;;;;;;;12.80;5.83;;;;;;;;;;5012168;28;20405;-87
2022/03/29 13:04:05;;;;;;;7.80;4.80;;;;;;;;;;5012496;28;20246;-87
2022/03/29 13:06:40;;;;;;;8.67;4.67;;;;;;;;;;5012120;28;20664;-87
2022/03/29 13:09:08;;;;;;;9.63;5.57;;;;;;;;;;5012166;28;20245;-87
2022/03/29 13:11:35;;;;;;;7.47;4.63;;;;;;;;;;5012566;28;20208;-87
2022/03/29 13:14:03;;;;;;;8.90;5.20;;;;;;;;;;5012319;28;20211;-87
2022/03/29 13:16:30;;;;;;;11.43;5.30;;;;;;;;;;5012267;28;20196;-86
2022/03/29 13:18:59;;;;;;;8.70;5.60;;;;;;;;;;5011988;28;20207;-87
2022/03/29 13:21:28;;;;;;;7.17;5.03;;;;;;;;;;5012199;28;20206;-87
2022/03/29 13:23:57;;;;;;;11.33;4.83;;;;;;;;;;5011951;28;20738;-87
2022/03/29 13:26:27;;;;;;;8.70;5.53;;;;;;;;;;5012064;28;20196;-87
2022/03/29 13:28:55;;;;;;;10.63;5.67;;;;;;;;;;5012099;28;20203;-87
2022/03/29 13:31:24;;;;;;;17.23;6.10;;;;;;;;;;5012199;28;20220;-87
2022/03/29 13:33:53;;;;;;;15.17;6.07;;;;;;;;;;5011888;28;20218;-87
2022/03/29 13:36:23;;;;;;;11.83;6.80;;;;;;;;;;5012152;28;20680;-86
2022/03/29 13:38:53;;;;;;;9.63;5.53;;;;;;;;;;5012334;28;20183;-87
2022/03/29 13:41:23;;;;;;;13.97;5.23;;;;;;;;;;5015310;28;20654;-86
2022/03/29 13:43:50;;;;;;;11.43;4.37;;;;;;;;;;5016347;28;20259;-87
2022/03/29 13:46:18;;;;;;;15.50;5.60;;;;;;;;;;5024065;28;20198;-87
2022/03/29 13:48:45;;;;;;;12.33;5.20;;;;;;;;;;5015359;28;20200;-86
2022/03/29 13:51:14;;;;;;;6.83;4.50;;;;;;;;;;5015476;28;20210;-87
2022/03/29 13:53:44;;;;;;;9.23;4.80;;;;;;;;;;5015563;28;20196;-87
2022/03/29 13:56:12;;;;;;;12.63;5.20;;;;;;;;;;5015945;28;20195;-87
2022/03/29 13:58:40;;;;;;;5.83;4.43;;;;;;;;;;5014004;28;20667;-86
2022/03/29 14:01:07;;;;;;;8.83;4.80;;;;;;;;;;5013155;28;20215;-87
2022/03/29 14:03:35;;;;;;;5.53;4.63;;;;;;;;;;5015093;28;20227;-86
2022/03/29 14:06:02;;;;;;;11.00;6.47;;;;;;;;;;5015641;28;20207;-86
2022/03/29 14:08:30;;;;;;;11.30;6.00;;;;;;;;;;5015259;28;20205;-85
2022/03/29 14:11:00;;;;;;;13.03;5.37;;;;;;;;;;5015799;28;20303;-86
2022/03/29 14:13:29;;;;;;;6.97;4.93;;;;;;;;;;5015090;28;20207;-86
2022/03/29 14:15:57;;;;;;;8.00;4.87;;;;;;;;;;5015223;28;20206;-85
2022/03/29 14:18:27;;;;;;;8.70;5.97;;;;;;;;;;5015342;28;20244;-86
2022/03/29 14:20:55;;;;;;;11.30;5.27;;;;;;;;;;5014598;28;20220;-85
2022/03/29 14:23:23;;;;;;;10.23;6.17;;;;;;;;;;5015140;28;20227;-86
2022/03/29 14:25:51;;;;;;;12.13;5.50;;;;;;;;;;5014838;28;20204;-86
2022/03/29 14:28:21;;;;;;;13.97;6.27;;;;;;;;;;5014654;28;20195;-86
2022/03/29 14:30:48;;;;;;;6.30;5.50;;;;;;;;;;5014619;28;20694;-86
2022/03/29 14:33:15;;;;;;;10.13;5.03;;;;;;;;;;5014603;28;20254;-86
2022/03/29 14:35:46;;;;;;;18.90;8.27;;;;;;;;;;5014361;28;20231;-86
2022/03/29 14:38:14;;;;;;;11.37;6.47;;;;;;;;;;5015188;28;20192;-86
2022/03/29 14:40:42;;;;;;;12.20;5.93;;;;;;;;;;5014836;28;20211;-86
2022/03/29 14:43:09;;;;;;;6.90;5.40;;;;;;;;;;5014818;28;20314;-86
2022/03/29 14:45:37;;;;;;;5.07;4.63;;;;;;;;;;5014610;28;20206;-86
2022/03/29 14:48:06;;;;;;;15.43;4.80;;;;;;;;;;5014723;28;20644;-86